Bns Amazonas P120 — PWAZ — position and weather

sailwx.info

Track history (hours):
 
Tides and Currents Weather Stations Pressure Air Temp Water Temp Dewpoint Dewpoint Depression Visibility Wind Speed Wind Dir Waves Ship Positions

Bns Amazonas P120

Last reported at 2016-Mar-27 08:20 UTC. Time now 2016-Jun-27 00:33 UTC.
Position S 33°43' E 018°13'.
Warning: this ship's position is months out of date.

Length 91 m; draft 4.5 m.

Type: Military. MMSI: 710493000.

Date/timePositionNaut miles runAvg speedWind from/ knotsBaromVisibWave heightAir tempDewpointWater temp
2016-Mar-27 08:20S 33°43' E 018°13'1012.5
2016-Mar-27 07:33S 33°51' E 018°20'6 5.9
2016-Mar-27 06:33S 33°54' E 018°26'1 0.9
2016-Mar-27 05:31S 33°54' E 018°25'0 0.0
2016-Mar-27 04:33S 33°54' E 018°25'0 0.0
2016-Mar-27 03:31S 33°54' E 018°25'0 0.0
2016-Mar-27 02:33S 33°54' E 018°25'0 0.0
2016-Mar-27 01:33S 33°54' E 018°25'0 0.0
2016-Mar-27 00:29S 33°54' E 018°25'0 0.0
2016-Mar-26 23:31S 33°54' E 018°25'0 0.0
2016-Mar-26 22:31S 33°54' E 018°25'0 0.0
2016-Mar-26 21:31S 33°54' E 018°25'0 0.0
2016-Mar-26 20:28S 33°54' E 018°25'0 0.0
2016-Mar-26 19:33S 33°54' E 018°25'0 0.0
2016-Mar-26 18:29S 33°54' E 018°25'0 0.0
2016-Mar-26 17:32S 33°54' E 018°25'0 0.0
2016-Mar-26 16:28S 33°54' E 018°25'0 0.0
2016-Mar-26 15:31S 33°54' E 018°25'0 0.0
2016-Mar-26 14:33S 33°54' E 018°25'0 0.0
2016-Mar-26 13:29S 33°54' E 018°25'0 0.0
2016-Mar-26 12:32S 33°54' E 018°25'0 0.0
2016-Mar-26 11:31S 33°54' E 018°25'0 0.0
2016-Mar-26 10:31S 33°54' E 018°25'0 0.0
2016-Mar-26 09:33S 33°54' E 018°25'0 0.0
2016-Mar-26 08:32S 33°54' E 018°25'0 0.0
2016-Mar-26 07:32S 33°54' E 018°25'0 0.0
2016-Mar-26 06:28S 33°54' E 018°25'0 0.0
2016-Mar-26 05:31S 33°54' E 018°25'0 0.0
2016-Mar-26 04:25S 33°54' E 018°25'0 0.0
2016-Mar-26 03:27S 33°54' E 018°25'0 0.0
2016-Mar-26 02:30S 33°54' E 018°25'0 0.0
2016-Mar-26 01:32S 33°54' E 018°25'0 0.0
2016-Mar-26 00:25S 33°54' E 018°25'0 0.0
2016-Mar-25 23:31S 33°54' E 018°25'0 0.0
2016-Mar-25 22:33S 33°54' E 018°25'0 0.0
2016-Mar-25 21:33S 33°54' E 018°25'0 0.0
2016-Mar-25 20:32S 33°54' E 018°25'0 0.0
2016-Mar-24 13:21S 33°54' E 018°25'0 0.0
2016-Mar-24 12:33S 33°54' E 018°25'0 0.0
2016-Mar-24 11:32S 33°54' E 018°25'0 0.0
2016-Mar-24 10:31S 33°54' E 018°25'0 0.0
2016-Mar-24 09:31S 33°54' E 018°25'0 0.0
2016-Mar-24 08:33S 33°54' E 018°25'0 0.0
2016-Mar-24 07:33S 33°54' E 018°25'0 0.0
2016-Mar-24 06:32S 33°54' E 018°25'0 0.0
2016-Mar-24 05:31S 33°54' E 018°25'0 0.0
2016-Mar-24 04:28S 33°54' E 018°25'0 0.0
2016-Mar-24 03:33S 33°54' E 018°25'0 0.0
2016-Mar-24 02:33S 33°54' E 018°25'0 0.0
2016-Mar-24 01:32S 33°54' E 018°25'0 0.0
2016-Mar-24 00:31S 33°54' E 018°25'0 0.0
2016-Mar-23 23:31S 33°54' E 018°25'0 0.0
2016-Mar-23 22:33S 33°54' E 018°25'0 0.0
2016-Mar-23 21:33S 33°54' E 018°25'0 0.0
2016-Mar-23 20:26S 33°54' E 018°25'0 0.0
2016-Mar-23 19:32S 33°54' E 018°25'0 0.0
2016-Mar-23 18:31S 33°54' E 018°25'0 0.0
2016-Mar-23 17:33S 33°54' E 018°25'0 0.0
2016-Mar-23 16:33S 33°54' E 018°25'0 0.0
2016-Mar-23 15:32S 33°54' E 018°25'0 0.0
2016-Mar-23 14:16S 33°54' E 018°25'0 0.0
2016-Mar-23 13:28S 33°54' E 018°25'0 0.0
2016-Mar-23 12:30S 33°54' E 018°25'0 0.0
2016-Mar-23 11:30S 33°54' E 018°25'0 0.0
2016-Mar-23 10:29S 33°54' E 018°25'0 0.0
2016-Mar-23 09:32S 33°54' E 018°25'0 0.0
2016-Mar-23 08:31S 33°54' E 018°25'0 0.0
2016-Mar-23 07:33S 33°54' E 018°25'0 0.0
2016-Mar-23 06:33S 33°54' E 018°25'2 2.0
2016-Mar-23 05:33S 33°52' E 018°24'12 2.0
2016-Mar-22 23:31S 33°48' E 018°11'5 2.3
2016-Mar-22 21:27S 33°51' E 018°16'  
Track history (hours):
 
Tides and Currents Weather Stations Pressure Air Temp Water Temp Dewpoint Dewpoint Depression Visibility Wind Speed Wind Dir Waves Ship Positions

Bns Amazonas P120

Last reported at 2016-Mar-27 08:20 UTC. Time now 2016-Jun-27 00:33 UTC.
Position S 33°43' E 018°13'.
Warning: this ship's position is months out of date.

Length 91 m; draft 4.5 m.

Type: Military. MMSI: 710493000.

Date/timePositionNaut miles runAvg speedWind from/ knotsBaromVisibWave heightAir tempDewpointWater temp
2016-Mar-27 08:20S 33°43' E 018°13'1012.5
2016-Mar-27 07:33S 33°51' E 018°20'6 5.9
2016-Mar-27 06:33S 33°54' E 018°26'1 0.9
2016-Mar-27 05:31S 33°54' E 018°25'0 0.0
2016-Mar-27 04:33S 33°54' E 018°25'0 0.0
2016-Mar-27 03:31S 33°54' E 018°25'0 0.0
2016-Mar-27 02:33S 33°54' E 018°25'0 0.0
2016-Mar-27 01:33S 33°54' E 018°25'0 0.0
2016-Mar-27 00:29S 33°54' E 018°25'0 0.0
2016-Mar-26 23:31S 33°54' E 018°25'0 0.0
2016-Mar-26 22:31S 33°54' E 018°25'0 0.0
2016-Mar-26 21:31S 33°54' E 018°25'0 0.0
2016-Mar-26 20:28S 33°54' E 018°25'0 0.0
2016-Mar-26 19:33S 33°54' E 018°25'0 0.0
2016-Mar-26 18:29S 33°54' E 018°25'0 0.0
2016-Mar-26 17:32S 33°54' E 018°25'0 0.0
2016-Mar-26 16:28S 33°54' E 018°25'0 0.0
2016-Mar-26 15:31S 33°54' E 018°25'0 0.0
2016-Mar-26 14:33S 33°54' E 018°25'0 0.0
2016-Mar-26 13:29S 33°54' E 018°25'0 0.0
2016-Mar-26 12:32S 33°54' E 018°25'0 0.0
2016-Mar-26 11:31S 33°54' E 018°25'0 0.0
2016-Mar-26 10:31S 33°54' E 018°25'0 0.0
2016-Mar-26 09:33S 33°54' E 018°25'0 0.0
2016-Mar-26 08:32S 33°54' E 018°25'0 0.0
2016-Mar-26 07:32S 33°54' E 018°25'0 0.0
2016-Mar-26 06:28S 33°54' E 018°25'0 0.0
2016-Mar-26 05:31S 33°54' E 018°25'0 0.0
2016-Mar-26 04:25S 33°54' E 018°25'0 0.0
2016-Mar-26 03:27S 33°54' E 018°25'0 0.0
2016-Mar-26 02:30S 33°54' E 018°25'0 0.0
2016-Mar-26 01:32S 33°54' E 018°25'0 0.0
2016-Mar-26 00:25S 33°54' E 018°25'0 0.0
2016-Mar-25 23:31S 33°54' E 018°25'0 0.0
2016-Mar-25 22:33S 33°54' E 018°25'0 0.0
2016-Mar-25 21:33S 33°54' E 018°25'0 0.0
2016-Mar-25 20:32S 33°54' E 018°25'0 0.0
2016-Mar-24 13:21S 33°54' E 018°25'0 0.0
2016-Mar-24 12:33S 33°54' E 018°25'0 0.0
2016-Mar-24 11:32S 33°54' E 018°25'0 0.0
2016-Mar-24 10:31S 33°54' E 018°25'0 0.0
2016-Mar-24 09:31S 33°54' E 018°25'0 0.0
2016-Mar-24 08:33S 33°54' E 018°25'0 0.0
2016-Mar-24 07:33S 33°54' E 018°25'0 0.0
2016-Mar-24 06:32S 33°54' E 018°25'0 0.0
2016-Mar-24 05:31S 33°54' E 018°25'0 0.0
2016-Mar-24 04:28S 33°54' E 018°25'0 0.0
2016-Mar-24 03:33S 33°54' E 018°25'0 0.0
2016-Mar-24 02:33S 33°54' E 018°25'0 0.0
2016-Mar-24 01:32S 33°54' E 018°25'0 0.0
2016-Mar-24 00:31S 33°54' E 018°25'0 0.0
2016-Mar-23 23:31S 33°54' E 018°25'0 0.0
2016-Mar-23 22:33S 33°54' E 018°25'0 0.0
2016-Mar-23 21:33S 33°54' E 018°25'0 0.0
2016-Mar-23 20:26S 33°54' E 018°25'0 0.0
2016-Mar-23 19:32S 33°54' E 018°25'0 0.0
2016-Mar-23 18:31S 33°54' E 018°25'0 0.0
2016-Mar-23 17:33S 33°54' E 018°25'0 0.0
2016-Mar-23 16:33S 33°54' E 018°25'0 0.0
2016-Mar-23 15:32S 33°54' E 018°25'0 0.0
2016-Mar-23 14:16S 33°54' E 018°25'0 0.0
2016-Mar-23 13:28S 33°54' E 018°25'0 0.0
2016-Mar-23 12:30S 33°54' E 018°25'0 0.0
2016-Mar-23 11:30S 33°54' E 018°25'0 0.0
2016-Mar-23 10:29S 33°54' E 018°25'0 0.0
2016-Mar-23 09:32S 33°54' E 018°25'0 0.0
2016-Mar-23 08:31S 33°54' E 018°25'0 0.0
2016-Mar-23 07:33S 33°54' E 018°25'0 0.0
2016-Mar-23 06:33S 33°54' E 018°25'2 2.0
2016-Mar-23 05:33S 33°52' E 018°24'12 2.0
2016-Mar-22 23:31S 33°48' E 018°11'5 2.3
2016-Mar-22 21:27S 33°51' E 018°16'  

Dump ship's entire track history